createdAt,value
2019-06-01T00:02:03.572Z,3.37
2019-06-01T00:04:34.736Z,4.03
2019-06-01T00:07:05.633Z,4.00
2019-06-01T00:09:36.699Z,4.20
2019-06-01T00:12:07.524Z,4.00
2019-06-01T00:14:39.659Z,3.77
2019-06-01T00:17:10.724Z,4.00
2019-06-01T00:19:42.048Z,3.77
2019-06-01T00:22:12.929Z,4.37
2019-06-01T00:24:43.916Z,5.10
2019-06-01T00:27:14.792Z,4.00
2019-06-01T00:29:46.737Z,4.83
2019-06-01T00:32:17.710Z,4.10
2019-06-01T00:34:49.537Z,4.30
2019-06-01T00:37:20.871Z,3.53
2019-06-01T00:39:52.132Z,3.97
2019-06-01T00:42:23.091Z,3.90
2019-06-01T00:44:54.024Z,4.20
2019-06-01T00:47:24.880Z,4.43
2019-06-01T00:49:56.117Z,4.63
2019-06-01T00:52:27.006Z,3.83
2019-06-01T00:54:57.891Z,4.17
2019-06-01T00:57:28.792Z,3.90
2019-06-01T00:59:59.645Z,3.67
2019-06-01T01:02:30.549Z,4.20
2019-06-01T01:05:10.650Z,4.23
2019-06-01T01:07:41.792Z,4.27
2019-06-01T01:10:13.525Z,4.47
2019-06-01T01:13:02.084Z,3.47
2019-06-01T01:15:32.942Z,3.53
2019-06-01T01:18:05.585Z,3.40
2019-06-01T01:20:37.273Z,4.17
2019-06-01T01:23:08.678Z,4.10
2019-06-01T01:25:40.982Z,3.37
2019-06-01T01:28:11.960Z,4.53
2019-06-01T01:30:58.090Z,4.20
2019-06-01T01:33:16.223Z,3.60
2019-06-01T01:35:47.591Z,3.90
2019-06-01T01:38:18.745Z,4.27
2019-06-01T01:40:50.055Z,4.60
2019-06-01T01:43:21.222Z,4.20
2019-06-01T01:45:52.743Z,3.53
2019-06-01T01:48:23.705Z,3.90
2019-06-01T01:50:56.408Z,4.33
2019-06-01T01:53:27.389Z,4.17
2019-06-01T01:55:59.070Z,4.03
2019-06-01T01:58:30.077Z,3.70
2019-06-01T02:01:17.002Z,4.93
2019-06-01T02:03:33.506Z,3.90
2019-06-01T02:06:04.518Z,4.33
2019-06-01T02:08:35.437Z,4.40
2019-06-01T02:11:06.396Z,4.50
2019-06-01T02:13:37.341Z,4.07
2019-06-01T02:16:08.288Z,4.00
2019-06-01T02:18:39.276Z,3.87
2019-06-01T02:21:10.698Z,3.83
2019-06-01T02:23:41.993Z,3.63
2019-06-01T02:26:13.052Z,3.80
2019-06-01T02:28:44.035Z,4.43
2019-06-01T02:31:15.300Z,4.27
2019-06-01T02:33:46.278Z,4.20
2019-06-01T02:36:17.503Z,4.33
2019-06-01T02:38:48.525Z,4.17
2019-06-01T02:41:19.572Z,4.33
2019-06-01T02:43:51.016Z,4.63
2019-06-01T02:46:21.976Z,4.10
2019-06-01T02:48:52.942Z,4.10
2019-06-01T02:51:23.953Z,4.63
2019-06-01T02:53:55.584Z,4.60
2019-06-01T02:56:26.584Z,4.83
2019-06-01T02:58:58.241Z,4.63
2019-06-01T03:01:37.064Z,4.37
2019-06-01T03:04:09.965Z,4.70
2019-06-01T03:06:43.426Z,5.00
2019-06-01T03:09:14.992Z,4.80
2019-06-01T03:11:49.482Z,4.27
2019-06-01T03:14:22.446Z,4.07
2019-06-01T03:16:53.779Z,4.00
2019-06-01T03:19:26.314Z,4.40
2019-06-01T03:22:04.811Z,4.03
2019-06-01T03:24:38.202Z,3.80
2019-06-01T03:27:12.725Z,4.17
2019-06-01T03:29:47.229Z,4.03
2019-06-01T03:32:34.300Z,3.97
2019-06-01T03:34:50.732Z,4.17
2019-06-01T03:37:21.703Z,5.17
2019-06-01T03:39:52.594Z,4.90
2019-06-01T03:42:24.664Z,4.70
2019-06-01T03:44:55.588Z,4.70
2019-06-01T03:47:26.536Z,4.53
2019-06-01T03:49:58.198Z,4.40
2019-06-01T03:52:29.220Z,4.17
2019-06-01T03:55:00.237Z,4.50
2019-06-01T03:57:31.090Z,4.77
2019-06-01T04:00:03.218Z,4.20
2019-06-01T04:02:34.318Z,4.03
2019-06-01T04:05:05.721Z,4.10
2019-06-01T04:07:38.920Z,4.37
2019-06-01T04:10:10.022Z,5.27
2019-06-01T04:12:41.435Z,4.47
2019-06-01T04:15:16.555Z,4.10
2019-06-01T04:17:45.419Z,4.77
2019-06-01T04:20:16.286Z,4.37
2019-06-01T04:22:47.148Z,4.67
2019-06-01T04:25:18.053Z,4.63
2019-06-01T04:27:48.962Z,3.90
2019-06-01T04:30:25.718Z,4.17
2019-06-01T04:32:56.559Z,4.03
2019-06-01T04:35:28.506Z,4.27
2019-06-01T04:38:00.503Z,3.63
2019-06-01T04:40:31.380Z,4.23
2019-06-01T04:43:03.629Z,4.17
2019-06-01T04:45:34.502Z,4.10
2019-06-01T04:48:06.375Z,3.92
2019-06-01T04:50:37.382Z,4.13
2019-06-01T04:53:08.865Z,4.07
2019-06-01T04:55:39.792Z,4.67
2019-06-01T04:58:11.081Z,3.57
2019-06-01T05:00:42.083Z,4.13
2019-06-01T05:03:13.572Z,4.92
2019-06-01T05:05:44.881Z,3.83
2019-06-01T05:08:15.745Z,3.92
2019-06-01T05:10:46.935Z,4.00
2019-06-01T05:13:17.865Z,4.12
2019-06-01T05:15:48.744Z,4.53
2019-06-01T05:18:19.771Z,4.03
2019-06-01T05:20:50.682Z,4.15
2019-06-01T05:23:21.558Z,4.28
2019-06-01T05:25:53.386Z,4.42
2019-06-01T05:28:24.819Z,4.08
2019-06-01T05:30:55.776Z,4.40
2019-06-01T05:33:36.964Z,4.28
2019-06-01T05:35:59.499Z,5.10
2019-06-01T05:38:30.387Z,4.45
2019-06-01T05:41:01.247Z,4.65
2019-06-01T05:43:32.049Z,4.90
2019-06-01T05:46:03.014Z,4.85
2019-06-01T05:48:34.164Z,4.62
2019-06-01T05:51:05.374Z,4.62
2019-06-01T05:53:36.328Z,4.35
2019-06-01T05:56:07.236Z,4.15
2019-06-01T05:58:38.147Z,4.58
2019-06-01T06:01:10.335Z,4.17
2019-06-01T06:03:41.306Z,4.67
2019-06-01T06:06:12.166Z,3.92
2019-06-01T06:08:43.072Z,3.10
2019-06-01T06:11:14.918Z,3.60
2019-06-01T06:13:45.891Z,3.30
2019-06-01T06:16:17.941Z,2.80
2019-06-01T06:18:49.080Z,3.77
2019-06-01T06:21:20.334Z,3.55
2019-06-01T06:23:51.236Z,2.95
2019-06-01T06:26:22.812Z,3.40
2019-06-01T06:28:53.846Z,3.20
2019-06-01T06:31:25.797Z,3.50
2019-06-01T06:33:57.242Z,3.75
2019-06-01T06:36:28.202Z,3.80
2019-06-01T06:38:59.155Z,3.15
2019-06-01T06:41:30.086Z,4.30
2019-06-01T06:44:00.930Z,3.90
2019-06-01T06:46:31.924Z,4.20
2019-06-01T06:49:03.268Z,6.03
2019-06-01T06:51:34.150Z,5.67
2019-06-01T06:54:05.466Z,7.12
2019-06-01T06:56:36.317Z,7.90
2019-06-01T06:59:07.579Z,7.60
2019-06-01T07:01:38.386Z,6.50
2019-06-01T07:04:12.642Z,5.22
2019-06-01T07:06:41.720Z,4.58
2019-06-01T07:09:13.736Z,3.83
2019-06-01T07:11:44.574Z,3.87
2019-06-01T07:14:15.458Z,3.52
2019-06-01T07:16:46.381Z,3.52
2019-06-01T07:19:17.270Z,3.15
2019-06-01T07:21:48.146Z,3.10
2019-06-01T07:24:19.603Z,2.75
2019-06-01T07:26:50.480Z,2.55
2019-06-01T07:29:22.112Z,1.62
2019-06-01T07:31:53.060Z,1.92
2019-06-01T07:34:35.591Z,2.72
2019-06-01T07:36:56.473Z,2.30
2019-06-01T07:39:28.896Z,2.42
2019-06-01T07:42:00.055Z,2.15
2019-06-01T07:44:30.926Z,2.67
2019-06-01T07:47:01.802Z,2.12
2019-06-01T07:49:32.760Z,1.90
2019-06-01T07:52:12.971Z,2.50
2019-06-01T07:54:36.376Z,2.10
2019-06-01T07:57:07.283Z,2.00
2019-06-01T07:59:38.539Z,2.08
2019-06-01T08:02:09.887Z,1.80
2019-06-01T08:04:52.612Z,2.00
2019-06-01T08:07:13.278Z,1.17
2019-06-01T08:09:44.141Z,1.30
2019-06-01T08:12:15.069Z,1.62
2019-06-01T08:14:46.079Z,1.45
2019-06-01T08:17:17.080Z,1.77
2019-06-01T08:19:51.651Z,1.82
2019-06-01T08:22:20.348Z,1.45
2019-06-01T08:24:51.554Z,1.75
2019-06-01T08:27:22.471Z,1.55
2019-06-01T08:29:53.379Z,1.40
2019-06-01T08:32:24.531Z,1.05
2019-06-01T08:35:07.789Z,1.22
2019-06-01T08:37:29.375Z,1.20
2019-06-01T08:40:00.302Z,0.78
2019-06-01T08:42:31.591Z,1.00
2019-06-01T08:45:02.660Z,1.15
2019-06-01T08:47:34.087Z,1.40
2019-06-01T08:50:05.763Z,1.30
2019-06-01T08:52:36.699Z,0.90
2019-06-01T08:55:09.232Z,0.98
2019-06-01T08:57:40.878Z,0.80
2019-06-01T09:00:12.695Z,1.20
2019-06-01T09:02:43.652Z,0.88
2019-06-01T09:05:24.034Z,1.20
2019-06-01T09:07:47.565Z,1.40
2019-06-01T09:10:18.497Z,0.80
2019-06-01T09:12:49.373Z,1.20
2019-06-01T09:15:20.505Z,0.72
2019-06-01T09:17:51.417Z,1.05
2019-06-01T09:20:22.249Z,1.27
2019-06-01T09:22:53.192Z,1.07
2019-06-01T09:25:24.084Z,1.20
2019-06-01T09:27:55.065Z,1.07
2019-06-01T09:30:26.073Z,0.93
2019-06-01T09:32:57.065Z,0.90
2019-06-01T09:35:51.368Z,1.05
2019-06-01T09:38:00.417Z,0.82
2019-06-01T09:40:32.204Z,0.57
2019-06-01T09:43:03.804Z,0.90
2019-06-01T09:45:34.632Z,1.07
2019-06-01T09:48:05.752Z,0.78
2019-06-01T09:50:37.797Z,1.17
2019-06-01T09:53:08.686Z,0.95
2019-06-01T09:55:39.584Z,1.00
2019-06-01T09:58:10.470Z,1.00
2019-06-01T10:00:43.803Z,1.32
2019-06-01T10:03:13.905Z,1.30
2019-06-01T10:06:00.926Z,1.00
2019-06-01T10:08:17.235Z,1.20
2019-06-01T10:10:51.492Z,1.07
2019-06-01T10:13:22.525Z,1.98
2019-06-01T10:15:53.391Z,0.95
2019-06-01T10:18:26.893Z,1.40
2019-06-01T10:20:56.843Z,0.82
2019-06-01T10:23:27.690Z,1.02
2019-06-01T10:25:59.293Z,2.17
2019-06-01T10:28:31.446Z,2.12
2019-06-01T10:31:02.581Z,1.40
2019-06-01T10:33:34.727Z,1.32
2019-06-01T10:36:19.822Z,1.10
2019-06-01T10:38:39.362Z,1.52
2019-06-01T10:41:10.909Z,1.15
2019-06-01T10:43:41.824Z,1.10
2019-06-01T10:46:12.614Z,0.82
2019-06-01T10:48:43.556Z,1.70
2019-06-01T10:51:14.548Z,1.60
2019-06-01T10:53:45.471Z,1.82
2019-06-01T10:56:17.006Z,1.57
2019-06-01T10:58:59.763Z,1.20
2019-06-01T11:01:20.534Z,1.42
2019-06-01T11:03:51.459Z,1.62
2019-06-01T11:06:36.180Z,1.95
2019-06-01T11:08:54.849Z,1.27
2019-06-01T11:11:25.809Z,1.60
2019-06-01T11:13:56.674Z,1.07
2019-06-01T11:16:27.651Z,1.40
2019-06-01T11:18:58.477Z,1.10
2019-06-01T11:21:29.413Z,1.67
2019-06-01T11:24:00.534Z,1.42
2019-06-01T11:26:31.464Z,1.02
2019-06-01T11:29:02.312Z,1.45
2019-06-01T11:31:33.888Z,1.27
2019-06-01T11:34:04.819Z,1.62
2019-06-01T11:36:36.155Z,1.37
2019-06-01T11:39:08.828Z,1.30
2019-06-01T11:41:40.653Z,1.40
2019-06-01T11:44:12.045Z,1.60
2019-06-01T11:46:43.088Z,1.90
2019-06-01T11:49:13.899Z,1.30
2019-06-01T11:51:45.294Z,1.25
2019-06-01T11:54:16.283Z,1.30
2019-06-01T11:56:47.124Z,1.40
2019-06-01T11:59:21.169Z,1.30
2019-06-01T12:01:50.588Z,1.52
2019-06-01T12:04:21.576Z,1.98
2019-06-01T12:06:53.046Z,1.30
2019-06-01T12:09:35.748Z,1.30
2019-06-01T12:12:06.673Z,1.50
2019-06-01T12:14:38.432Z,1.40
2019-06-01T12:17:09.603Z,1.40
2019-06-01T12:19:40.801Z,1.00
2019-06-01T12:22:11.812Z,1.40
2019-06-01T12:24:43.034Z,1.40
2019-06-01T12:27:13.989Z,1.50
2019-06-01T12:29:45.861Z,1.37
2019-06-01T12:32:17.386Z,1.10
2019-06-01T12:34:48.604Z,1.40
2019-06-01T12:37:36.034Z,1.25
2019-06-01T12:39:54.294Z,1.00
2019-06-01T12:42:24.725Z,1.50
2019-06-01T12:44:55.681Z,1.30
2019-06-01T12:47:27.458Z,1.30
2019-06-01T12:49:58.509Z,1.55
2019-06-01T12:52:29.375Z,1.40
2019-06-01T12:55:00.370Z,1.32
2019-06-01T12:57:31.798Z,1.12
2019-06-01T13:00:02.742Z,1.20
2019-06-01T13:02:34.901Z,1.30
2019-06-01T13:05:06.580Z,1.30
2019-06-01T13:07:51.067Z,1.75
2019-06-01T13:10:10.370Z,1.37
2019-06-01T13:12:41.643Z,1.22
2019-06-01T13:15:12.876Z,1.52
2019-06-01T13:17:45.136Z,1.40
2019-06-01T13:20:16.268Z,1.07
2019-06-01T13:22:47.716Z,1.10
2019-06-01T13:25:18.856Z,1.10
2019-06-01T13:27:50.657Z,1.52
2019-06-01T13:30:22.156Z,1.22
2019-06-01T13:32:53.088Z,0.95
2019-06-01T13:35:24.019Z,1.70
2019-06-01T13:38:10.896Z,1.40
2019-06-01T13:40:27.633Z,1.27
2019-06-01T13:42:59.529Z,1.40
2019-06-01T13:45:30.480Z,1.20
2019-06-01T13:48:01.533Z,1.25
2019-06-01T13:50:32.529Z,1.45
2019-06-01T13:53:03.563Z,1.77
2019-06-01T13:55:36.760Z,1.70
2019-06-01T13:58:08.154Z,1.67
2019-06-01T14:00:39.055Z,2.02
2019-06-01T14:03:11.143Z,2.70
2019-06-01T14:05:42.439Z,1.40
2019-06-01T14:08:27.909Z,1.98
2019-06-01T14:10:47.168Z,5.17
2019-06-01T14:13:18.020Z,2.40
2019-06-01T14:15:50.003Z,1.42
2019-06-01T14:18:21.256Z,5.03
2019-06-01T14:20:52.115Z,2.02
2019-06-01T14:23:23.100Z,1.22
2019-06-01T14:25:54.371Z,1.45
2019-06-01T14:28:25.559Z,1.20
2019-06-01T14:30:56.615Z,1.75
2019-06-01T14:33:27.673Z,1.65
2019-06-01T14:35:59.212Z,1.27
2019-06-01T14:38:45.867Z,1.40
2019-06-01T14:41:02.777Z,1.80
2019-06-01T14:43:34.142Z,2.42
2019-06-01T14:46:05.392Z,2.98
2019-06-01T14:48:36.765Z,1.40
2019-06-01T14:51:07.667Z,1.47
2019-06-01T14:53:38.686Z,1.65
2019-06-01T14:56:09.707Z,1.37
2019-06-01T14:58:41.044Z,2.02
2019-06-01T15:01:12.109Z,1.12
2019-06-01T15:03:43.114Z,0.98
2019-06-01T15:06:14.568Z,1.82
2019-06-01T15:08:45.527Z,1.05
2019-06-01T15:11:16.426Z,1.17
2019-06-01T15:13:48.254Z,1.17
2019-06-01T15:16:19.231Z,1.80
2019-06-01T15:18:51.552Z,1.35
2019-06-01T15:21:22.585Z,1.40
2019-06-01T15:23:53.879Z,1.40
2019-06-01T15:26:24.904Z,1.62
2019-06-01T15:28:57.077Z,1.35
2019-06-01T15:31:28.188Z,1.30
2019-06-01T15:33:59.470Z,3.62
2019-06-01T15:36:30.419Z,1.95
2019-06-01T15:39:03.371Z,1.40
2019-06-01T15:41:36.100Z,1.67
2019-06-01T15:44:07.251Z,1.40
2019-06-01T15:46:38.195Z,1.52
2019-06-01T15:49:09.110Z,1.72
2019-06-01T15:51:40.165Z,3.15
2019-06-01T15:54:11.155Z,3.20
2019-06-01T15:56:43.565Z,2.20
2019-06-01T15:59:14.580Z,2.05
2019-06-01T16:01:45.508Z,2.50
2019-06-01T16:04:16.502Z,3.65
2019-06-01T16:06:47.523Z,2.85
2019-06-01T16:09:18.506Z,5.08
2019-06-01T16:11:49.762Z,2.72
2019-06-01T16:14:21.257Z,4.92
2019-06-01T16:16:52.090Z,2.80
2019-06-01T16:19:23.463Z,1.65
2019-06-01T16:21:54.391Z,1.20
2019-06-01T16:24:25.350Z,2.22
2019-06-01T16:26:56.431Z,1.98
2019-06-01T16:29:27.373Z,1.37
2019-06-01T16:31:58.675Z,2.17
2019-06-01T16:34:30.693Z,2.08
2019-06-01T16:37:01.760Z,1.30
2019-06-01T16:39:32.739Z,1.30
2019-06-01T16:42:04.008Z,3.75
2019-06-01T16:44:35.029Z,1.60
2019-06-01T16:47:06.196Z,1.57
2019-06-01T16:49:37.326Z,1.92
2019-06-01T16:52:08.280Z,2.98
2019-06-01T16:54:39.103Z,2.58
2019-06-01T16:57:11.232Z,1.67
2019-06-01T16:59:42.289Z,1.95
2019-06-01T17:02:13.167Z,1.55
2019-06-01T17:04:44.143Z,1.67
2019-06-01T17:07:15.131Z,2.17
2019-06-01T17:09:46.260Z,2.10
2019-06-01T17:12:17.351Z,1.55
2019-06-01T17:14:48.357Z,1.95
2019-06-01T17:17:19.315Z,1.55
2019-06-01T17:19:50.237Z,1.37
2019-06-01T17:22:21.201Z,1.85
2019-06-01T17:24:52.569Z,1.95
2019-06-01T17:27:23.996Z,1.98
2019-06-01T17:29:54.924Z,1.60
2019-06-01T17:32:25.802Z,2.20
2019-06-01T17:34:58.517Z,1.50
2019-06-01T17:37:29.256Z,2.00
2019-06-01T17:40:00.067Z,2.12
2019-06-01T17:42:30.795Z,4.25
2019-06-01T17:45:03.727Z,3.20
2019-06-01T17:47:34.599Z,2.02
2019-06-01T17:50:07.366Z,3.22
2019-06-01T17:52:38.264Z,3.47
2019-06-01T17:55:09.242Z,2.40
2019-06-01T17:57:39.915Z,2.80
2019-06-01T18:00:11.791Z,1.87
2019-06-01T18:02:43.081Z,1.87
2019-06-01T18:05:13.809Z,1.80
2019-06-01T18:07:44.535Z,1.65
2019-06-01T18:10:16.275Z,1.65
2019-06-01T18:12:47.019Z,2.08
2019-06-01T18:15:18.008Z,1.92
2019-06-01T18:17:48.654Z,2.17
2019-06-01T18:20:19.565Z,2.85
2019-06-01T18:22:50.281Z,2.30
2019-06-01T18:25:23.457Z,1.98
2019-06-01T18:27:55.357Z,2.33
2019-06-01T18:30:26.593Z,2.67
2019-06-01T18:32:57.922Z,2.42
2019-06-01T18:35:28.580Z,2.22
2019-06-01T18:37:59.380Z,2.42
2019-06-01T18:40:29.942Z,2.77
2019-06-01T18:43:05.774Z,2.25
2019-06-01T18:45:37.091Z,2.83
2019-06-01T18:48:08.266Z,3.10
2019-06-01T18:50:39.045Z,2.05
2019-06-01T18:53:10.112Z,2.45
2019-06-01T18:55:40.985Z,2.42
2019-06-01T18:58:12.521Z,2.35
2019-06-01T19:00:43.988Z,3.02
2019-06-01T19:03:15.520Z,2.77
2019-06-01T19:05:46.449Z,2.25
2019-06-01T19:08:17.029Z,2.25
2019-06-01T19:10:48.773Z,3.12
2019-06-01T19:13:20.083Z,3.42
2019-06-01T19:15:50.735Z,4.35
2019-06-01T19:18:21.447Z,2.75
2019-06-01T19:20:52.049Z,3.15
2019-06-01T19:23:23.079Z,2.62
2019-06-01T19:25:53.902Z,3.12
2019-06-01T19:28:24.555Z,4.20
2019-06-01T19:30:55.334Z,3.67
2019-06-01T19:33:26.112Z,4.55
2019-06-01T19:35:58.792Z,4.20
2019-06-01T19:38:31.221Z,4.40
2019-06-01T19:41:01.933Z,3.95
2019-06-01T19:43:33.068Z,3.42
2019-06-01T19:46:03.688Z,3.12
2019-06-01T19:48:34.282Z,3.37
2019-06-01T19:51:04.988Z,4.53
2019-06-01T19:53:35.683Z,5.12
2019-06-01T19:56:06.667Z,5.78
2019-06-01T19:58:37.286Z,5.03
2019-06-01T20:01:07.920Z,5.67
2019-06-01T20:03:38.625Z,7.60
2019-06-01T20:06:10.566Z,6.78
2019-06-01T20:08:41.429Z,7.67
2019-06-01T20:11:13.101Z,9.48
2019-06-01T20:13:43.894Z,9.65
2019-06-01T20:16:14.857Z,9.25
2019-06-01T20:18:45.607Z,8.15
2019-06-01T20:21:16.321Z,7.83
2019-06-01T20:23:47.236Z,9.75
2019-06-01T20:26:17.893Z,12.15
2019-06-01T20:28:48.645Z,13.88
2019-06-01T20:31:19.891Z,16.23
2019-06-01T20:33:50.772Z,16.73
2019-06-01T20:36:22.244Z,9.53
2019-06-01T20:38:54.038Z,7.03
2019-06-01T20:41:25.650Z,6.60
2019-06-01T20:43:56.359Z,6.97
2019-06-01T20:46:26.862Z,6.62
2019-06-01T20:48:57.667Z,9.50
2019-06-01T20:51:28.247Z,9.15
2019-06-01T20:53:58.840Z,7.55
2019-06-01T20:56:29.472Z,6.97
2019-06-01T20:59:00.107Z,11.03
2019-06-01T21:01:30.676Z,10.50
2019-06-01T21:04:01.429Z,11.10
2019-06-01T21:06:32.032Z,11.43
2019-06-01T21:09:02.726Z,11.33
2019-06-01T21:11:35.089Z,10.23
2019-06-01T21:14:06.062Z,10.03
2019-06-01T21:16:36.796Z,11.40
2019-06-01T21:19:07.580Z,10.38
2019-06-01T21:21:39.102Z,9.95
2019-06-01T21:24:09.742Z,8.60
2019-06-01T21:26:40.402Z,9.93
2019-06-01T21:29:11.462Z,9.10
2019-06-01T21:31:43.155Z,10.43
2019-06-01T21:34:14.993Z,9.80
2019-06-01T21:36:45.969Z,10.30
2019-06-01T21:39:17.483Z,8.00
2019-06-01T21:41:48.674Z,8.13
2019-06-01T21:44:19.669Z,8.50
2019-06-01T21:46:50.762Z,8.55
2019-06-01T21:49:22.136Z,10.35
2019-06-01T21:51:53.299Z,9.55
2019-06-01T21:54:24.591Z,9.00
2019-06-01T21:56:55.749Z,9.73
2019-06-01T21:59:27.186Z,9.13
2019-06-01T22:01:58.101Z,9.05
2019-06-01T22:04:28.928Z,11.35
2019-06-01T22:06:59.762Z,8.73
2019-06-01T22:09:30.741Z,7.55
2019-06-01T22:12:01.438Z,8.00
2019-06-01T22:14:32.302Z,7.10
2019-06-01T22:17:02.991Z,6.83
2019-06-01T22:19:33.655Z,6.53
2019-06-01T22:22:04.431Z,6.15
2019-06-01T22:24:35.678Z,5.05
2019-06-01T22:27:06.872Z,5.17
2019-06-01T22:29:40.189Z,5.53
2019-06-01T22:32:11.203Z,4.78
2019-06-01T22:34:42.161Z,5.17
2019-06-01T22:37:13.061Z,5.47
2019-06-01T22:39:43.834Z,4.62
2019-06-01T22:42:14.350Z,4.95
2019-06-01T22:44:45.114Z,4.22
2019-06-01T22:47:16.256Z,4.17
2019-06-01T22:49:47.051Z,4.30
2019-06-01T22:52:17.829Z,4.53
2019-06-01T22:54:48.570Z,4.12
2019-06-01T22:57:20.315Z,3.65
2019-06-01T22:59:52.184Z,4.53
2019-06-01T23:02:23.547Z,4.72
2019-06-01T23:04:54.618Z,3.80
2019-06-01T23:07:25.269Z,4.17
2019-06-01T23:09:56.035Z,4.60
2019-06-01T23:12:27.734Z,4.53
2019-06-01T23:14:58.518Z,4.15
2019-06-01T23:17:29.913Z,4.42
2019-06-01T23:20:00.721Z,4.22
2019-06-01T23:22:32.397Z,4.22
2019-06-01T23:25:03.213Z,4.80
2019-06-01T23:27:34.047Z,4.62
2019-06-01T23:30:05.377Z,4.37
2019-06-01T23:32:36.102Z,3.75
2019-06-01T23:35:06.851Z,4.50
2019-06-01T23:37:37.563Z,5.15
2019-06-01T23:40:08.377Z,4.15
2019-06-01T23:42:39.316Z,5.05
2019-06-01T23:45:10.178Z,4.70
2019-06-01T23:47:40.935Z,5.95
2019-06-01T23:50:11.716Z,5.25
2019-06-01T23:52:42.378Z,5.20
2019-06-01T23:55:13.159Z,5.20
2019-06-01T23:57:43.707Z,5.47
